TimeEDT,TemperatureF,Dew PointF,Humidity,Sea Level PressureIn,VisibilityMPH,Wind Direction,Wind SpeedMPH,Gust SpeedMPH,PrecipitationIn,Events,Conditions,WindDirDegrees,DateUTC
12:51 AM,69.1,51.1,53,29.94,10.0,North,10.4,-,N/A,,Overcast,360,2013-07-25 04:51:00
1:51 AM,68.0,51.1,55,29.94,10.0,North,10.4,-,N/A,,Overcast,10,2013-07-25 05:51:00
2:51 AM,66.9,51.1,57,29.94,10.0,NNE,12.7,-,N/A,,Overcast,20,2013-07-25 06:51:00
3:51 AM,66.0,51.1,59,29.94,10.0,NNE,12.7,-,N/A,,Overcast,20,2013-07-25 07:51:00
4:51 AM,66.9,52.0,59,29.95,10.0,NNE,10.4,-,N/A,,Overcast,30,2013-07-25 08:51:00
5:51 AM,64.9,51.1,61,29.96,10.0,NNE,15.0,21.9,N/A,,Overcast,30,2013-07-25 09:51:00
6:51 AM,64.9,51.1,61,29.97,10.0,NNE,13.8,20.7,N/A,,Overcast,30,2013-07-25 10:51:00
7:51 AM,64.9,51.1,61,30.00,10.0,NNE,13.8,19.6,N/A,,Overcast,20,2013-07-25 11:51:00
8:51 AM,66.0,51.1,59,30.01,10.0,NE,11.5,-,N/A,,Overcast,40,2013-07-25 12:51:00
9:46 AM,64.4,51.8,64,30.02,10.0,NE,13.8,-,N/A,,Overcast,40,2013-07-25 13:46:00
9:51 AM,66.9,51.1,57,30.02,10.0,NE,11.5,-,N/A,,Overcast,40,2013-07-25 13:51:00
10:51 AM,66.0,51.1,59,30.03,10.0,NE,17.3,20.7,N/A,,Overcast,50,2013-07-25 14:51:00
11:51 AM,66.0,51.1,59,30.05,10.0,ENE,17.3,-,N/A,,Overcast,60,2013-07-25 15:51:00
12:51 PM,66.9,52.0,59,30.04,10.0,NNE,15.0,-,N/A,,Overcast,30,2013-07-25 16:51:00
1:51 PM,66.0,54.0,65,30.04,10.0,NNE,11.5,-,N/A,,Overcast,30,2013-07-25 17:51:00
2:51 PM,66.0,54.0,65,30.04,10.0,ENE,15.0,-,N/A,,Overcast,60,2013-07-25 18:51:00
3:51 PM,64.9,55.0,70,30.05,10.0,NE,12.7,-,N/A,,Overcast,40,2013-07-25 19:51:00
4:51 PM,66.0,55.0,68,30.04,10.0,NE,15.0,-,N/A,,Overcast,40,2013-07-25 20:51:00
5:45 PM,68.0,55.4,64,30.04,10.0,NE,12.7,-,N/A,,Overcast,50,2013-07-25 21:45:00
5:51 PM,66.0,55.9,70,30.04,10.0,NE,11.5,-,N/A,,Overcast,40,2013-07-25 21:51:00
6:51 PM,66.9,55.9,68,30.04,10.0,NE,16.1,21.9,N/A,,Overcast,50,2013-07-25 22:51:00
7:51 PM,68.0,55.0,63,30.04,10.0,NE,15.0,-,N/A,,Overcast,40,2013-07-25 23:51:00
8:51 PM,66.9,55.0,66,30.04,10.0,NE,10.4,-,N/A,,Overcast,40,2013-07-26 00:51:00
9:51 PM,66.9,55.9,68,30.04,10.0,NE,13.8,24.2,N/A,,Overcast,40,2013-07-26 01:51:00
10:51 PM,66.0,57.0,73,30.04,10.0,NNE,12.7,-,0.01,Rain,Light Rain,30,2013-07-26 02:51:00
11:51 PM,64.9,57.9,78,30.04,10.0,NE,11.5,-,0.01,Rain,Light Rain,40,2013-07-26 03:51:00